createdAt,value
2023-04-19T03:39:00.297Z,6.50
2023-04-19T03:49:36.199Z,7.80
2023-04-19T04:00:14.428Z,7.55
2023-04-19T04:10:49.866Z,7.60
2023-04-19T04:21:27.112Z,10.20
2023-04-19T04:32:08.613Z,8.23
2023-04-19T04:42:47.627Z,13.30
2023-04-19T04:53:27.516Z,12.10
2023-04-19T05:04:03.721Z,12.40
2023-04-19T05:14:39.478Z,14.98
2023-04-19T05:25:15.210Z,31.05
2023-04-19T05:35:51.334Z,32.08
2023-04-19T05:46:27.181Z,112.57
2023-04-19T05:57:04.360Z,93.20
2023-04-19T06:07:43.994Z,61.10
2023-04-19T06:18:29.913Z,17.97
2023-04-19T06:29:06.220Z,26.27
2023-04-19T06:39:41.852Z,18.50
2023-04-19T06:50:17.721Z,13.05
2023-04-19T07:00:53.348Z,14.18
2023-04-19T07:11:28.892Z,15.75
2023-04-19T07:22:06.127Z,12.02
2023-04-19T07:32:41.895Z,15.13
2023-04-19T07:43:17.956Z,9.95
2023-04-19T07:53:54.103Z,13.88
2023-04-19T08:04:30.326Z,14.93
2023-04-19T08:15:25.702Z,14.15
2023-04-19T08:26:03.802Z,12.93
2023-04-19T08:36:48.342Z,9.23
2023-04-19T08:47:32.271Z,8.85
2023-04-19T08:58:15.384Z,9.50
2023-04-19T09:19:55.533Z,8.27
2023-04-19T09:30:34.113Z,6.03
2023-04-19T09:41:17.320Z,6.63
2023-04-19T09:51:55.714Z,6.55
2023-04-19T10:02:33.116Z,7.40
2023-04-19T10:13:19.604Z,4.70
2023-04-19T10:23:57.574Z,5.13
2023-04-19T10:34:42.459Z,9.13
2023-04-19T10:45:35.207Z,3.33
2023-04-19T10:56:11.450Z,3.40
2023-04-19T11:06:52.939Z,3.50
2023-04-19T11:17:31.981Z,3.85
2023-04-19T11:28:07.898Z,4.87
2023-04-19T11:38:47.872Z,7.53
2023-04-19T11:49:31.878Z,4.63
2023-04-19T12:00:12.385Z,3.55
2023-04-19T12:10:58.300Z,5.53
2023-04-19T12:21:33.798Z,4.60
2023-04-19T12:32:11.119Z,5.85
2023-04-19T12:42:47.197Z,3.85
2023-04-19T12:53:24.184Z,2.90
2023-04-19T13:03:59.951Z,5.43
2023-04-19T13:14:35.918Z,2.50
2023-04-19T13:25:11.653Z,2.33
2023-04-19T13:35:47.569Z,3.25
2023-04-19T13:46:23.433Z,2.65
2023-04-19T13:56:59.303Z,4.30
2023-04-19T14:07:35.097Z,2.05
2023-04-19T14:18:11.106Z,2.63
2023-04-19T14:28:46.829Z,1.38
2023-04-19T14:39:22.448Z,1.60
2023-04-19T14:49:58.075Z,2.17
2023-04-19T15:00:33.996Z,1.48
2023-04-19T15:11:09.813Z,2.03
2023-04-19T15:21:45.472Z,1.52
2023-04-19T15:32:21.346Z,2.35
2023-04-19T15:42:56.837Z,1.33
2023-04-19T15:53:32.650Z,5.50
2023-04-19T16:04:08.590Z,2.95
2023-04-19T16:14:44.478Z,3.30
2023-04-19T16:25:20.468Z,1.67
2023-04-19T16:35:56.254Z,1.42
2023-04-19T16:46:32.032Z,5.57
2023-04-19T16:57:07.770Z,3.15
2023-04-19T17:07:43.857Z,1.50
2023-04-19T17:18:19.177Z,7.05
2023-04-19T17:28:54.453Z,3.47
2023-04-19T17:39:30.612Z,3.55
2023-04-19T17:50:07.456Z,2.40
2023-04-19T18:00:43.197Z,2.20
2023-04-19T18:11:18.716Z,3.55
2023-04-19T18:21:54.620Z,4.10
2023-04-19T18:32:31.918Z,4.43
2023-04-19T18:43:07.637Z,4.25
2023-04-19T18:53:45.372Z,3.60
2023-04-19T19:04:42.886Z,5.45
2023-04-19T19:15:18.933Z,5.07
2023-04-19T19:25:54.589Z,3.92
2023-04-19T19:36:30.936Z,2.08
2023-04-19T19:47:10.304Z,3.25
2023-04-19T20:08:25.442Z,5.27
2023-04-19T20:19:09.397Z,3.20
2023-04-19T20:29:44.881Z,2.33
2023-04-19T20:40:22.822Z,2.83
2023-04-19T20:50:58.293Z,6.18
2023-04-19T21:01:34.293Z,3.20
2023-04-19T21:12:10.357Z,20.48
2023-04-19T21:22:47.074Z,3.92
